Hampton Beach, New Hampshire
Current Conditions -  °F | °C
As of 7:58 PM on Monday 26 Jan 2015 (Local Time) from KPSM Reporting Station
Light Snow Light Snow  
Wind Chill:   Ceiling: 1900
Heat Index: 19°   Visibility: 10mi
Dew Point:   Wind: 14mph
Humidity: 55%   Direction: 20°NNE
Pressure: 30.09"   Gusts: 23mph
Location:  42.9284°N, 70.8566°W
Report Text: KPSM 270058Z 02012G20KT 10SM -SN OVC019 M07/M15 A3009 RMK AO2A SLP195 P0000 T10731149
Loading
Personal Weather Stations






























Interactive Weather Map New forecast layout! Learn more

10-Day Weather Forecast

Advertisements
Track Severe Weather on mobile